Terminal Aerodrome Forecast
Issued by NWS Jackson, KY

Home | Current Version | Previous Version | Text Only | Print | Product List | Glossary On
Versions: 1 2 3 4 5 6 7 8 9 10 11 12 13 14 15 16 17
000
FTUS43 KJKL 301131
TAFLOZ
TAF
KLOZ 301131Z 3012/0112 VRB04KT P6SM SCT030 BKN080 BKN250
     FM301500 24009KT P6SM VCTS BKN045CB
     FM010400 VRB03KT 6SM BR SCT080 BKN250=

USA.gov is the U.S. government's official web portal to all federal, state and local government web resources and services.